sensor_id;sensor_type;location;lat;lon;timestamp;P1;durP1;ratioP1;P2;durP2;ratioP2
51146;SDS011;37207;53.060;18.726;2022-11-20T00:00:16;36.30;;;17.70;;
51146;SDS011;37207;53.060;18.726;2022-11-20T00:03:03;30.50;;;16.80;;
51146;SDS011;37207;53.060;18.726;2022-11-20T00:05:31;32.10;;;17.50;;
51146;SDS011;37207;53.060;18.726;2022-11-20T00:07:59;34.80;;;18.00;;
51146;SDS011;37207;53.060;18.726;2022-11-20T00:10:25;41.20;;;18.20;;
51146;SDS011;37207;53.060;18.726;2022-11-20T00:12:52;34.60;;;18.70;;
51146;SDS011;37207;53.060;18.726;2022-11-20T00:15:19;35.70;;;18.70;;
51146;SDS011;37207;53.060;18.726;2022-11-20T00:17:46;33.60;;;18.00;;
51146;SDS011;37207;53.060;18.726;2022-11-20T00:20:12;32.10;;;17.40;;
51146;SDS011;37207;53.060;18.726;2022-11-20T00:22:39;35.00;;;16.90;;
51146;SDS011;37207;53.060;18.726;2022-11-20T00:25:06;36.30;;;18.90;;
51146;SDS011;37207;53.060;18.726;2022-11-20T00:27:33;31.20;;;17.00;;
51146;SDS011;37207;53.060;18.726;2022-11-20T00:30:00;36.70;;;18.10;;
51146;SDS011;37207;53.060;18.726;2022-11-20T00:32:27;35.90;;;17.60;;
51146;SDS011;37207;53.060;18.726;2022-11-20T00:34:53;40.30;;;19.10;;
51146;SDS011;37207;53.060;18.726;2022-11-20T00:37:20;38.10;;;17.80;;
51146;SDS011;37207;53.060;18.726;2022-11-20T00:39:46;36.30;;;18.90;;
51146;SDS011;37207;53.060;18.726;2022-11-20T00:42:13;38.60;;;18.50;;
51146;SDS011;37207;53.060;18.726;2022-11-20T00:44:40;38.80;;;18.90;;
51146;SDS011;37207;53.060;18.726;2022-11-20T00:47:07;41.50;;;18.10;;
51146;SDS011;37207;53.060;18.726;2022-11-20T00:49:33;37.50;;;19.90;;
51146;SDS011;37207;53.060;18.726;2022-11-20T00:52:00;34.50;;;18.20;;
51146;SDS011;37207;53.060;18.726;2022-11-20T00:54:26;32.40;;;18.60;;
51146;SDS011;37207;53.060;18.726;2022-11-20T00:56:53;34.20;;;14.90;;
51146;SDS011;37207;53.060;18.726;2022-11-20T00:59:20;34.30;;;18.90;;
51146;SDS011;37207;53.060;18.726;2022-11-20T01:01:46;29.50;;;16.60;;
51146;SDS011;37207;53.060;18.726;2022-11-20T01:04:13;39.50;;;19.30;;
51146;SDS011;37207;53.060;18.726;2022-11-20T01:06:40;40.50;;;18.90;;
51146;SDS011;37207;53.060;18.726;2022-11-20T01:09:10;39.80;;;17.40;;
51146;SDS011;37207;53.060;18.726;2022-11-20T01:11:40;33.90;;;16.50;;
51146;SDS011;37207;53.060;18.726;2022-11-20T01:14:13;31.40;;;18.30;;
51146;SDS011;37207;53.060;18.726;2022-11-20T01:16:48;35.80;;;18.00;;
51146;SDS011;37207;53.060;18.726;2022-11-20T01:19:21;41.00;;;19.50;;
51146;SDS011;37207;53.060;18.726;2022-11-20T01:21:52;35.40;;;16.30;;
51146;SDS011;37207;53.060;18.726;2022-11-20T01:24:20;44.00;;;19.30;;
51146;SDS011;37207;53.060;18.726;2022-11-20T01:26:48;33.50;;;17.10;;
51146;SDS011;37207;53.060;18.726;2022-11-20T01:29:17;34.60;;;18.00;;
51146;SDS011;37207;53.060;18.726;2022-11-20T01:31:46;45.10;;;17.90;;
51146;SDS011;37207;53.060;18.726;2022-11-20T01:34:14;35.50;;;17.50;;
51146;SDS011;37207;53.060;18.726;2022-11-20T01:36:43;38.20;;;19.30;;
51146;SDS011;37207;53.060;18.726;2022-11-20T01:39:11;38.10;;;17.30;;
51146;SDS011;37207;53.060;18.726;2022-11-20T01:41:41;38.80;;;18.60;;
51146;SDS011;37207;53.060;18.726;2022-11-20T01:47:12;37.60;;;19.00;;
51146;SDS011;37207;53.060;18.726;2022-11-20T01:49:44;34.90;;;19.20;;
51146;SDS011;37207;53.060;18.726;2022-11-20T01:52:20;37.40;;;19.30;;
51146;SDS011;37207;53.060;18.726;2022-11-20T01:54:57;36.50;;;18.10;;
51146;SDS011;37207;53.060;18.726;2022-11-20T01:57:27;35.20;;;18.10;;
51146;SDS011;37207;53.060;18.726;2022-11-20T02:00:00;34.80;;;17.20;;
51146;SDS011;37207;53.060;18.726;2022-11-20T02:02:42;42.50;;;19.50;;
51146;SDS011;37207;53.060;18.726;2022-11-20T02:08:07;36.30;;;17.70;;
51146;SDS011;37207;53.060;18.726;2022-11-20T02:10:34;34.80;;;17.60;;
51146;SDS011;37207;53.060;18.726;2022-11-20T02:13:01;38.50;;;17.60;;
51146;SDS011;37207;53.060;18.726;2022-11-20T02:15:47;40.00;;;18.90;;
51146;SDS011;37207;53.060;18.726;2022-11-20T02:18:15;36.10;;;19.50;;
51146;SDS011;37207;53.060;18.726;2022-11-20T02:20:45;33.60;;;18.90;;
51146;SDS011;37207;53.060;18.726;2022-11-20T02:23:19;31.40;;;17.10;;
51146;SDS011;37207;53.060;18.726;2022-11-20T02:25:52;41.10;;;19.30;;
51146;SDS011;37207;53.060;18.726;2022-11-20T02:28:21;42.70;;;19.00;;
51146;SDS011;37207;53.060;18.726;2022-11-20T02:30:48;38.10;;;18.60;;
51146;SDS011;37207;53.060;18.726;2022-11-20T02:33:15;36.60;;;20.30;;
51146;SDS011;37207;53.060;18.726;2022-11-20T02:35:43;36.20;;;18.30;;
51146;SDS011;37207;53.060;18.726;2022-11-20T02:38:11;36.40;;;18.60;;
51146;SDS011;37207;53.060;18.726;2022-11-20T02:40:39;43.80;;;19.00;;
51146;SDS011;37207;53.060;18.726;2022-11-20T02:43:06;40.00;;;18.80;;
51146;SDS011;37207;53.060;18.726;2022-11-20T02:45:33;38.60;;;19.20;;
51146;SDS011;37207;53.060;18.726;2022-11-20T02:48:00;43.50;;;20.20;;
51146;SDS011;37207;53.060;18.726;2022-11-20T02:50:27;43.30;;;20.60;;
51146;SDS011;37207;53.060;18.726;2022-11-20T02:52:53;39.00;;;20.50;;
51146;SDS011;37207;53.060;18.726;2022-11-20T02:55:20;36.30;;;19.90;;
51146;SDS011;37207;53.060;18.726;2022-11-20T02:57:47;34.40;;;18.80;;
51146;SDS011;37207;53.060;18.726;2022-11-20T03:00:13;37.30;;;19.30;;
51146;SDS011;37207;53.060;18.726;2022-11-20T03:02:40;36.80;;;19.80;;
51146;SDS011;37207;53.060;18.726;2022-11-20T03:05:07;30.50;;;16.40;;
51146;SDS011;37207;53.060;18.726;2022-11-20T03:07:34;36.10;;;19.80;;
51146;SDS011;37207;53.060;18.726;2022-11-20T03:10:01;37.10;;;18.50;;
51146;SDS011;37207;53.060;18.726;2022-11-20T03:12:28;43.30;;;20.10;;
51146;SDS011;37207;53.060;18.726;2022-11-20T03:14:54;41.60;;;18.60;;
51146;SDS011;37207;53.060;18.726;2022-11-20T03:17:21;38.40;;;19.00;;
51146;SDS011;37207;53.060;18.726;2022-11-20T03:19:48;40.90;;;19.90;;
51146;SDS011;37207;53.060;18.726;2022-11-20T03:22:15;39.80;;;20.10;;
51146;SDS011;37207;53.060;18.726;2022-11-20T03:24:41;38.20;;;19.60;;
51146;SDS011;37207;53.060;18.726;2022-11-20T03:27:08;35.40;;;20.30;;
51146;SDS011;37207;53.060;18.726;2022-11-20T03:29:35;37.30;;;19.30;;
51146;SDS011;37207;53.060;18.726;2022-11-20T03:32:02;39.80;;;20.00;;
51146;SDS011;37207;53.060;18.726;2022-11-20T03:34:28;37.70;;;20.00;;
51146;SDS011;37207;53.060;18.726;2022-11-20T03:36:55;33.60;;;20.00;;
51146;SDS011;37207;53.060;18.726;2022-11-20T03:39:22;29.80;;;16.40;;
51146;SDS011;37207;53.060;18.726;2022-11-20T03:41:48;38.10;;;20.20;;
51146;SDS011;37207;53.060;18.726;2022-11-20T03:44:15;38.50;;;19.30;;
51146;SDS011;37207;53.060;18.726;2022-11-20T03:46:42;42.70;;;20.20;;
51146;SDS011;37207;53.060;18.726;2022-11-20T03:49:09;39.70;;;19.00;;
51146;SDS011;37207;53.060;18.726;2022-11-20T03:51:35;34.20;;;17.10;;
51146;SDS011;37207;53.060;18.726;2022-11-20T03:54:04;32.70;;;17.80;;
51146;SDS011;37207;53.060;18.726;2022-11-20T03:56:34;37.60;;;20.10;;
51146;SDS011;37207;53.060;18.726;2022-11-20T03:59:03;43.10;;;20.10;;
51146;SDS011;37207;53.060;18.726;2022-11-20T04:01:31;36.30;;;18.90;;
51146;SDS011;37207;53.060;18.726;2022-11-20T04:03:59;41.90;;;19.30;;
51146;SDS011;37207;53.060;18.726;2022-11-20T04:06:28;32.50;;;18.20;;
51146;SDS011;37207;53.060;18.726;2022-11-20T04:08:57;37.80;;;19.90;;
51146;SDS011;37207;53.060;18.726;2022-11-20T04:11:25;31.10;;;16.20;;
51146;SDS011;37207;53.060;18.726;2022-11-20T04:14:00;36.70;;;20.50;;
51146;SDS011;37207;53.060;18.726;2022-11-20T04:16:29;41.70;;;16.90;;
51146;SDS011;37207;53.060;18.726;2022-11-20T04:18:58;39.40;;;20.50;;
51146;SDS011;37207;53.060;18.726;2022-11-20T04:21:26;43.40;;;19.50;;
51146;SDS011;37207;53.060;18.726;2022-11-20T04:23:53;46.70;;;18.70;;
51146;SDS011;37207;53.060;18.726;2022-11-20T04:26:21;43.60;;;19.60;;
51146;SDS011;37207;53.060;18.726;2022-11-20T04:28:49;36.00;;;18.80;;
51146;SDS011;37207;53.060;18.726;2022-11-20T04:31:17;35.30;;;16.80;;
51146;SDS011;37207;53.060;18.726;2022-11-20T04:33:46;31.50;;;16.30;;
51146;SDS011;37207;53.060;18.726;2022-11-20T04:36:15;41.60;;;19.10;;
51146;SDS011;37207;53.060;18.726;2022-11-20T04:38:44;45.00;;;19.30;;
51146;SDS011;37207;53.060;18.726;2022-11-20T04:41:15;43.00;;;19.30;;
51146;SDS011;37207;53.060;18.726;2022-11-20T04:43:47;40.90;;;20.40;;
51146;SDS011;37207;53.060;18.726;2022-11-20T04:46:16;38.40;;;19.80;;
51146;SDS011;37207;53.060;18.726;2022-11-20T04:48:47;38.40;;;20.50;;
51146;SDS011;37207;53.060;18.726;2022-11-20T04:51:14;35.30;;;19.20;;
51146;SDS011;37207;53.060;18.726;2022-11-20T04:53:41;37.00;;;18.60;;
51146;SDS011;37207;53.060;18.726;2022-11-20T04:56:09;46.10;;;20.10;;
51146;SDS011;37207;53.060;18.726;2022-11-20T04:58:37;34.70;;;19.60;;
51146;SDS011;37207;53.060;18.726;2022-11-20T05:03:48;34.10;;;18.60;;
51146;SDS011;37207;53.060;18.726;2022-11-20T05:06:16;37.10;;;18.80;;
51146;SDS011;37207;53.060;18.726;2022-11-20T05:08:52;51.20;;;20.50;;
51146;SDS011;37207;53.060;18.726;2022-11-20T05:11:19;42.70;;;21.00;;
51146;SDS011;37207;53.060;18.726;2022-11-20T05:13:47;39.00;;;19.40;;
51146;SDS011;37207;53.060;18.726;2022-11-20T05:16:16;41.10;;;19.20;;
51146;SDS011;37207;53.060;18.726;2022-11-20T05:18:45;34.80;;;18.50;;
51146;SDS011;37207;53.060;18.726;2022-11-20T05:21:12;41.30;;;19.00;;
51146;SDS011;37207;53.060;18.726;2022-11-20T05:23:40;28.20;;;15.40;;
51146;SDS011;37207;53.060;18.726;2022-11-20T05:26:08;39.30;;;19.80;;
51146;SDS011;37207;53.060;18.726;2022-11-20T05:28:38;43.30;;;20.90;;
51146;SDS011;37207;53.060;18.726;2022-11-20T05:33:40;45.30;;;20.70;;
51146;SDS011;37207;53.060;18.726;2022-11-20T05:36:09;43.40;;;19.80;;
51146;SDS011;37207;53.060;18.726;2022-11-20T05:38:36;42.20;;;20.70;;
51146;SDS011;37207;53.060;18.726;2022-11-20T05:41:07;39.80;;;20.10;;
51146;SDS011;37207;53.060;18.726;2022-11-20T05:43:36;35.90;;;18.40;;
51146;SDS011;37207;53.060;18.726;2022-11-20T05:46:05;32.30;;;16.70;;
51146;SDS011;37207;53.060;18.726;2022-11-20T05:48:33;42.60;;;19.10;;
51146;SDS011;37207;53.060;18.726;2022-11-20T05:51:01;49.80;;;22.00;;
51146;SDS011;37207;53.060;18.726;2022-11-20T05:53:29;37.60;;;19.00;;
51146;SDS011;37207;53.060;18.726;2022-11-20T05:58:34;40.00;;;19.20;;
51146;SDS011;37207;53.060;18.726;2022-11-20T06:03:35;53.40;;;21.90;;
51146;SDS011;37207;53.060;18.726;2022-11-20T06:06:02;39.00;;;19.20;;
51146;SDS011;37207;53.060;18.726;2022-11-20T06:08:30;42.50;;;20.90;;
51146;SDS011;37207;53.060;18.726;2022-11-20T06:10:58;47.30;;;23.10;;
51146;SDS011;37207;53.060;18.726;2022-11-20T06:13:28;45.20;;;20.30;;
51146;SDS011;37207;53.060;18.726;2022-11-20T06:15:55;36.90;;;20.10;;
51146;SDS011;37207;53.060;18.726;2022-11-20T06:18:22;43.40;;;22.30;;
51146;SDS011;37207;53.060;18.726;2022-11-20T06:20:49;40.80;;;18.40;;
51146;SDS011;37207;53.060;18.726;2022-11-20T06:23:16;41.20;;;21.40;;
51146;SDS011;37207;53.060;18.726;2022-11-20T06:25:42;38.30;;;19.40;;
51146;SDS011;37207;53.060;18.726;2022-11-20T06:28:09;43.30;;;19.40;;
51146;SDS011;37207;53.060;18.726;2022-11-20T06:30:36;38.30;;;18.20;;
51146;SDS011;37207;53.060;18.726;2022-11-20T06:33:03;44.90;;;21.80;;
51146;SDS011;37207;53.060;18.726;2022-11-20T06:35:29;43.80;;;20.90;;
51146;SDS011;37207;53.060;18.726;2022-11-20T06:37:56;37.70;;;20.70;;
51146;SDS011;37207;53.060;18.726;2022-11-20T06:40:23;46.40;;;21.80;;
51146;SDS011;37207;53.060;18.726;2022-11-20T06:42:50;49.80;;;22.30;;
51146;SDS011;37207;53.060;18.726;2022-11-20T06:45:17;54.90;;;23.20;;
51146;SDS011;37207;53.060;18.726;2022-11-20T06:47:43;38.70;;;19.40;;
51146;SDS011;37207;53.060;18.726;2022-11-20T06:50:10;46.50;;;20.20;;
51146;SDS011;37207;53.060;18.726;2022-11-20T06:52:37;27.50;;;14.80;;
51146;SDS011;37207;53.060;18.726;2022-11-20T06:55:04;39.50;;;20.70;;
51146;SDS011;37207;53.060;18.726;2022-11-20T06:57:31;39.00;;;19.30;;
51146;SDS011;37207;53.060;18.726;2022-11-20T06:59:58;37.30;;;18.70;;
51146;SDS011;37207;53.060;18.726;2022-11-20T07:02:25;45.30;;;20.50;;
51146;SDS011;37207;53.060;18.726;2022-11-20T07:04:55;41.60;;;21.10;;
51146;SDS011;37207;53.060;18.726;2022-11-20T07:07:22;45.40;;;21.30;;
51146;SDS011;37207;53.060;18.726;2022-11-20T07:09:48;45.10;;;21.80;;
51146;SDS011;37207;53.060;18.726;2022-11-20T07:12:15;43.00;;;21.40;;
51146;SDS011;37207;53.060;18.726;2022-11-20T07:14:42;44.60;;;21.50;;
51146;SDS011;37207;53.060;18.726;2022-11-20T07:17:09;117.20;;;44.00;;
51146;SDS011;37207;53.060;18.726;2022-11-20T07:19:36;48.80;;;22.90;;
51146;SDS011;37207;53.060;18.726;2022-11-20T07:22:03;43.10;;;20.40;;
51146;SDS011;37207;53.060;18.726;2022-11-20T07:24:29;42.70;;;24.00;;
51146;SDS011;37207;53.060;18.726;2022-11-20T07:26:56;49.90;;;25.20;;
51146;SDS011;37207;53.060;18.726;2022-11-20T07:29:23;44.20;;;22.90;;
51146;SDS011;37207;53.060;18.726;2022-11-20T07:31:50;48.90;;;23.20;;
51146;SDS011;37207;53.060;18.726;2022-11-20T07:34:16;74.60;;;29.30;;
51146;SDS011;37207;53.060;18.726;2022-11-20T07:36:43;58.40;;;25.90;;
51146;SDS011;37207;53.060;18.726;2022-11-20T07:39:10;46.40;;;23.40;;
51146;SDS011;37207;53.060;18.726;2022-11-20T07:41:37;41.40;;;21.30;;
51146;SDS011;37207;53.060;18.726;2022-11-20T07:44:03;62.60;;;25.40;;
51146;SDS011;37207;53.060;18.726;2022-11-20T07:46:30;45.00;;;23.40;;
51146;SDS011;37207;53.060;18.726;2022-11-20T07:48:57;49.50;;;23.80;;
51146;SDS011;37207;53.060;18.726;2022-11-20T07:51:24;46.20;;;23.90;;
51146;SDS011;37207;53.060;18.726;2022-11-20T07:53:52;71.90;;;28.10;;
51146;SDS011;37207;53.060;18.726;2022-11-20T07:56:19;48.30;;;24.90;;
51146;SDS011;37207;53.060;18.726;2022-11-20T07:58:46;46.80;;;24.50;;
51146;SDS011;37207;53.060;18.726;2022-11-20T08:01:13;46.90;;;24.10;;
51146;SDS011;37207;53.060;18.726;2022-11-20T08:03:39;44.20;;;23.60;;
51146;SDS011;37207;53.060;18.726;2022-11-20T08:06:06;49.70;;;24.80;;
51146;SDS011;37207;53.060;18.726;2022-11-20T08:08:33;50.30;;;24.80;;
51146;SDS011;37207;53.060;18.726;2022-11-20T08:11:00;53.70;;;24.00;;
51146;SDS011;37207;53.060;18.726;2022-11-20T08:13:45;50.90;;;23.90;;
51146;SDS011;37207;53.060;18.726;2022-11-20T08:16:31;44.40;;;23.60;;
51146;SDS011;37207;53.060;18.726;2022-11-20T08:18:57;67.30;;;26.00;;
51146;SDS011;37207;53.060;18.726;2022-11-20T08:21:24;57.90;;;38.90;;
51146;SDS011;37207;53.060;18.726;2022-11-20T08:23:51;104.40;;;29.80;;
51146;SDS011;37207;53.060;18.726;2022-11-20T08:26:17;197.00;;;50.60;;
51146;SDS011;37207;53.060;18.726;2022-11-20T08:28:44;59.10;;;25.70;;
51146;SDS011;37207;53.060;18.726;2022-11-20T08:31:11;52.80;;;24.40;;
51146;SDS011;37207;53.060;18.726;2022-11-20T08:33:38;55.40;;;39.20;;
51146;SDS011;37207;53.060;18.726;2022-11-20T08:36:04;55.00;;;25.30;;
51146;SDS011;37207;53.060;18.726;2022-11-20T08:38:32;57.80;;;27.30;;
51146;SDS011;37207;53.060;18.726;2022-11-20T08:41:00;71.20;;;45.60;;
51146;SDS011;37207;53.060;18.726;2022-11-20T08:43:46;45.10;;;22.30;;
51146;SDS011;37207;53.060;18.726;2022-11-20T08:46:13;51.40;;;24.80;;
51146;SDS011;37207;53.060;18.726;2022-11-20T08:48:40;77.30;;;48.20;;
51146;SDS011;37207;53.060;18.726;2022-11-20T08:51:07;230.00;;;100.40;;
51146;SDS011;37207;53.060;18.726;2022-11-20T08:53:34;80.80;;;46.00;;
51146;SDS011;37207;53.060;18.726;2022-11-20T08:56:00;53.40;;;40.60;;
51146;SDS011;37207;53.060;18.726;2022-11-20T08:58:27;54.10;;;39.60;;
51146;SDS011;37207;53.060;18.726;2022-11-20T09:00:54;57.70;;;39.10;;
51146;SDS011;37207;53.060;18.726;2022-11-20T09:03:20;53.80;;;41.50;;
51146;SDS011;37207;53.060;18.726;2022-11-20T09:05:47;59.20;;;42.20;;
51146;SDS011;37207;53.060;18.726;2022-11-20T09:08:14;67.00;;;44.70;;
51146;SDS011;37207;53.060;18.726;2022-11-20T09:10:41;71.00;;;50.50;;
51146;SDS011;37207;53.060;18.726;2022-11-20T09:13:08;64.80;;;45.00;;
51146;SDS011;37207;53.060;18.726;2022-11-20T09:15:34;78.40;;;54.00;;
51146;SDS011;37207;53.060;18.726;2022-11-20T09:18:01;60.70;;;43.10;;
51146;SDS011;37207;53.060;18.726;2022-11-20T09:22:57;54.80;;;38.40;;
51146;SDS011;37207;53.060;18.726;2022-11-20T09:25:24;47.00;;;37.30;;
51146;SDS011;37207;53.060;18.726;2022-11-20T09:27:57;51.30;;;37.90;;
51146;SDS011;37207;53.060;18.726;2022-11-20T09:30:25;45.80;;;37.20;;
51146;SDS011;37207;53.060;18.726;2022-11-20T09:32:53;53.40;;;36.80;;
51146;SDS011;37207;53.060;18.726;2022-11-20T09:35:20;43.20;;;35.30;;
51146;SDS011;37207;53.060;18.726;2022-11-20T09:37:46;49.20;;;37.60;;
51146;SDS011;37207;53.060;18.726;2022-11-20T09:40:24;48.60;;;38.00;;
